Route Details

Aircraft Information
Group: North America Fleet
Types: B738, B752, B762, B763
Route Data
Distance: 161nm
Duration: 1h 05m
Origin METAR: KMIA 010553Z 11004KT 10SM CLR 23/20 A3017 RMK AO2 SLP218 T02280200 10250 20228 58008 $
Dest. METAR: KLAL 010555Z AUTO 09004KT 10SM CLR 17/15 A3019 RMK AO2 T01670153 10229 20166
Freight Data
(for Feb 1, 2023)
Load Factor:
73%
Manifested Cargo: 43,133lbs
Financial History
Total Freight: 468,434lbs
Average Load: 0lbs/flt
Fuel Used: 55,581lbs
Avg. Fuel Used: 0lbs/flt
Fuel Expense: $30,634
Avg. Fuel Expense: $0
Avg. Fuel Cost: $0/lbs
Total Gross Income: $1,152,348
Pilot Pay: $2,029
Total Expenses: $204,433
Total Revenue: $915,251
Average Revenue: $0

Capitol Logistics 476




KMIA
Miami International Airport
Miami, Florida
KLAL
Lakeland Linder Regional Airport
Lakeland, Florida

Activity Log

Date Flight Route Aircraft Duration
09/20/2022 CPX476 BNGOS2 COREA DCT LAL DCT B738 0h 50m
09/19/2022 CPX476 BNGOS2 COREA DCT LAL DCT B763 0h 45m
09/04/2022 CPX476 BNGOS2 COREA LAL B738 0h 53m
08/31/2022 CPX476 Not Available B738 0h 56m
08/20/2022 CPX476 direct B763 1h 00m
08/04/2022 CPX476 BNGOS2 COREA DCT LAL DCT B738 0h 55m
08/03/2022 CPX476 BNGOS2 COREA DCT LAL DCT B738 0h 57m
07/11/2022 CPX476 BNGOS2 COREA DCT LAL DCT B763 0h 46m
07/02/2022 CPX208 BNGOS2 COREA LAL B763 0h 57m
06/12/2022 CPX208 BNGOS2 COREA LAL B738 0h 59m
06/08/2022 CPX208 BNGOS2 COREA LAL B763 0h 47m